Aviation Digital Data Service (ADDS)

Output produced by METARs form (1350 UTC 26 February 2021)
found at http://www.aviationweather.gov/metar/data/
 
KWWD 261256Z AUTO 01006KT 10SM CLR 03/M03 A3048 RMK AO2 SLP325 T00331028 $